createdAt,value
2023-04-01T00:00:02.564Z,15.84
2023-04-01T00:02:30.799Z,15.33
2023-04-01T00:04:58.709Z,14.30
2023-04-01T00:07:26.780Z,13.59
2023-04-01T00:09:58.536Z,13.08
2023-04-01T00:12:26.402Z,12.72
2023-04-01T00:14:54.067Z,13.91
2023-04-01T00:17:22.753Z,16.37
2023-04-01T00:19:50.518Z,16.52
2023-04-01T00:22:18.207Z,15.33
2023-04-01T00:24:45.942Z,14.36
2023-04-01T00:27:13.612Z,13.68
2023-04-01T00:29:41.307Z,13.19
2023-04-01T00:32:09.031Z,12.79
2023-04-01T00:34:36.698Z,12.51
2023-04-01T00:37:04.458Z,12.27
2023-04-01T00:39:32.428Z,12.72
2023-04-01T00:42:00.128Z,15.27
2023-04-01T00:44:27.854Z,16.78
2023-04-01T00:46:55.568Z,15.92
2023-04-01T00:49:23.279Z,14.73
2023-04-01T00:51:51.225Z,13.88
2023-04-01T00:54:18.911Z,13.28
2023-04-01T00:56:46.706Z,12.80
2023-04-01T00:59:14.445Z,12.43
2023-04-01T01:01:42.292Z,12.12
2023-04-01T01:04:10.174Z,12.24
2023-04-01T01:06:40.212Z,14.47
2023-04-01T01:09:08.881Z,15.23
2023-04-01T01:11:40.885Z,14.21
2023-04-01T01:14:11.068Z,13.36
2023-04-01T01:16:38.913Z,12.74
2023-04-01T01:19:06.692Z,12.29
2023-04-01T01:21:34.454Z,11.95
2023-04-01T01:24:04.366Z,13.16
2023-04-01T01:26:32.350Z,15.66
2023-04-01T01:29:00.116Z,15.38
2023-04-01T01:31:27.818Z,14.16
2023-04-01T01:33:55.630Z,13.32
2023-04-01T01:36:23.425Z,12.68
2023-04-01T01:38:51.159Z,12.20
2023-04-01T01:41:18.828Z,11.84
2023-04-01T01:43:46.491Z,12.70
2023-04-01T01:46:14.201Z,14.60
2023-04-01T01:48:42.212Z,14.16
2023-04-01T01:51:09.877Z,13.19
2023-04-01T01:53:37.640Z,12.46
2023-04-01T01:56:05.307Z,12.00
2023-04-01T01:58:33.066Z,11.70
2023-04-01T02:01:01.134Z,13.23
2023-04-01T02:03:28.795Z,15.08
2023-04-01T02:05:56.662Z,14.47
2023-04-01T02:08:24.324Z,13.47
2023-04-01T02:10:52.092Z,12.76
2023-04-01T02:13:19.748Z,12.26
2023-04-01T02:15:47.891Z,11.89
2023-04-01T02:18:15.793Z,11.59
2023-04-01T02:20:43.451Z,11.37
2023-04-01T02:23:11.319Z,12.49
2023-04-01T02:25:39.080Z,15.28
2023-04-01T02:28:07.354Z,16.16
2023-04-01T02:30:35.016Z,15.01
2023-04-01T02:33:02.815Z,13.92
2023-04-01T02:35:31.016Z,13.17
2023-04-01T02:37:59.031Z,12.64
2023-04-01T02:40:26.691Z,12.25
2023-04-01T02:42:54.349Z,11.89
2023-04-01T02:45:22.017Z,11.67
2023-04-01T02:47:49.713Z,13.26
2023-04-01T02:50:17.545Z,15.26
2023-04-01T02:52:45.307Z,14.75
2023-04-01T02:55:13.071Z,13.67
2023-04-01T02:57:40.836Z,12.81
2023-04-01T03:00:12.400Z,12.30
2023-04-01T03:02:40.368Z,11.91
2023-04-01T03:05:08.535Z,11.61
2023-04-01T03:07:36.298Z,12.60
2023-04-01T03:10:03.956Z,14.88
2023-04-01T03:12:31.723Z,14.87
2023-04-01T03:14:59.495Z,13.87
2023-04-01T03:17:39.440Z,13.03
2023-04-01T03:20:07.302Z,12.48
2023-04-01T03:22:34.935Z,12.09
2023-04-01T03:25:02.622Z,11.75
2023-04-01T03:27:30.488Z,11.53
2023-04-01T03:29:58.200Z,13.22
2023-04-01T03:32:26.042Z,15.41
2023-04-01T03:34:53.780Z,14.90
2023-04-01T03:37:21.748Z,13.75
2023-04-01T03:39:49.512Z,12.87
2023-04-01T03:42:17.366Z,12.24
2023-04-01T03:44:45.040Z,11.84
2023-04-01T03:47:12.707Z,11.86
2023-04-01T03:49:40.568Z,14.11
2023-04-01T03:52:08.228Z,15.92
2023-04-01T03:54:36.096Z,15.04
2023-04-01T03:57:03.818Z,13.88
2023-04-01T03:59:31.632Z,13.03
2023-04-01T04:01:59.392Z,12.47
2023-04-01T04:04:27.403Z,12.04
2023-04-01T04:06:55.125Z,11.70
2023-04-01T04:09:22.991Z,12.19
2023-04-01T04:11:51.073Z,14.77
2023-04-01T04:14:18.733Z,16.23
2023-04-01T04:16:46.486Z,15.24
2023-04-01T04:19:14.260Z,13.97
2023-04-01T04:21:42.017Z,13.16
2023-04-01T04:24:09.685Z,12.54
2023-04-01T04:26:37.349Z,12.10
2023-04-01T04:29:05.102Z,11.76
2023-04-01T04:31:32.931Z,11.50
2023-04-01T04:34:01.149Z,11.99
2023-04-01T04:36:28.804Z,14.70
2023-04-01T04:38:56.574Z,16.25
2023-04-01T04:41:24.333Z,15.31
2023-04-01T04:43:52.301Z,14.08
2023-04-01T04:46:20.022Z,13.24
2023-04-01T04:48:47.931Z,12.59
2023-04-01T04:51:16.311Z,12.10
2023-04-01T04:53:44.079Z,12.00
2023-04-01T04:56:11.848Z,14.09
2023-04-01T04:58:39.501Z,15.01
2023-04-01T05:01:07.210Z,14.11
2023-04-01T05:03:35.142Z,13.11
2023-04-01T05:06:03.000Z,12.40
2023-04-01T05:08:30.863Z,11.94
2023-04-01T05:10:58.530Z,13.09
2023-04-01T05:13:26.391Z,15.55
2023-04-01T05:15:54.056Z,15.42
2023-04-01T05:18:21.917Z,14.16
2023-04-01T05:20:49.685Z,13.21
2023-04-01T05:23:17.452Z,12.57
2023-04-01T05:25:46.382Z,12.10
2023-04-01T05:28:14.205Z,12.48
2023-04-01T05:30:42.702Z,15.04
2023-04-01T05:33:10.553Z,16.41
2023-04-01T05:35:38.409Z,15.38
2023-04-01T05:38:06.899Z,14.21
2023-04-01T05:40:36.005Z,13.37
2023-04-01T05:43:03.763Z,12.85
2023-04-01T05:45:31.602Z,12.45
2023-04-01T05:47:59.664Z,12.92
2023-04-01T05:50:27.467Z,15.47
2023-04-01T05:52:55.228Z,16.52
2023-04-01T05:55:22.886Z,15.39
2023-04-01T05:57:50.977Z,14.34
2023-04-01T06:00:18.721Z,13.59
2023-04-01T06:02:47.594Z,13.07
2023-04-01T06:05:15.581Z,12.63
2023-04-01T06:07:43.241Z,12.32
2023-04-01T06:10:11.212Z,12.70
2023-04-01T06:12:38.875Z,15.25
2023-04-01T06:15:06.849Z,16.22
2023-04-01T06:17:34.530Z,15.05
2023-04-01T06:20:02.266Z,14.06
2023-04-01T06:22:30.134Z,13.37
2023-04-01T06:24:58.102Z,12.83
2023-04-01T06:27:26.300Z,12.45
2023-04-01T06:29:54.039Z,12.74
2023-04-01T06:32:21.816Z,15.41
2023-04-01T06:34:49.675Z,16.35
2023-04-01T06:37:17.346Z,15.17
2023-04-01T06:39:44.996Z,14.19
2023-04-01T06:42:12.668Z,13.54
2023-04-01T06:44:40.424Z,13.06
2023-04-01T06:47:08.186Z,12.74
2023-04-01T06:49:35.848Z,13.26
2023-04-01T06:52:03.721Z,15.79
2023-04-01T06:54:31.383Z,16.00
2023-04-01T06:56:59.130Z,15.00
2023-04-01T06:59:26.803Z,14.21
2023-04-01T07:01:54.466Z,13.57
2023-04-01T07:04:22.305Z,13.15
2023-04-01T07:06:50.098Z,12.81
2023-04-01T07:09:17.858Z,13.31
2023-04-01T07:11:45.638Z,15.83
2023-04-01T07:14:13.284Z,16.89
2023-04-01T07:16:41.071Z,15.92
2023-04-01T07:19:08.914Z,14.82
2023-04-01T07:21:37.091Z,14.11
2023-04-01T07:24:04.745Z,13.56
2023-04-01T07:26:32.518Z,13.18
2023-04-01T07:29:00.168Z,12.96
2023-04-01T07:31:29.048Z,14.62
2023-04-01T07:33:56.926Z,15.60
2023-04-01T07:36:24.608Z,14.85
2023-04-01T07:38:52.265Z,14.16
2023-04-01T07:41:20.017Z,13.62
2023-04-01T07:43:47.679Z,13.32
2023-04-01T07:46:15.482Z,13.10
2023-04-01T07:48:43.317Z,12.97
2023-04-01T07:51:11.381Z,13.53
2023-04-01T07:53:39.056Z,16.06
2023-04-01T07:56:06.706Z,16.72
2023-04-01T07:58:34.379Z,15.87
2023-04-01T08:01:02.134Z,15.10
2023-04-01T08:03:30.000Z,14.62
2023-04-01T08:05:57.871Z,14.31
2023-04-01T08:08:26.448Z,14.06
2023-04-01T08:10:54.215Z,13.91
2023-04-01T08:13:21.972Z,13.74
2023-04-01T08:15:49.863Z,13.60
2023-04-01T08:18:17.662Z,13.48
2023-04-01T08:20:45.673Z,13.92
2023-04-01T08:23:13.648Z,16.20
2023-04-01T08:25:41.824Z,16.47
2023-04-01T08:28:09.582Z,15.69
2023-04-01T08:30:37.248Z,14.97
2023-04-01T08:33:05.063Z,14.48
2023-04-01T08:35:33.764Z,14.15
2023-04-01T08:38:02.695Z,13.91
2023-04-01T08:40:30.446Z,13.69
2023-04-01T08:42:58.108Z,13.51
2023-04-01T08:45:25.985Z,13.35
2023-04-01T08:47:53.869Z,13.49
2023-04-01T08:50:21.641Z,15.80
2023-04-01T08:52:49.373Z,17.31
2023-04-01T08:55:17.043Z,16.65
2023-04-01T08:57:44.695Z,15.58
2023-04-01T09:00:12.460Z,14.90
2023-04-01T09:02:40.209Z,14.45
2023-04-01T09:05:08.093Z,14.05
2023-04-01T09:07:35.956Z,13.86
2023-04-01T09:10:03.830Z,13.69
2023-04-01T09:12:31.488Z,13.52
2023-04-01T09:14:59.145Z,13.38
2023-04-01T09:17:26.925Z,13.25
2023-04-01T09:19:54.810Z,13.15
2023-04-01T09:22:22.559Z,13.12
2023-04-01T09:24:50.205Z,14.63
2023-04-01T09:27:17.840Z,15.83
2023-04-01T09:29:45.531Z,15.26
2023-04-01T09:32:13.197Z,14.62
2023-04-01T09:34:40.858Z,14.16
2023-04-01T09:37:08.519Z,13.87
2023-04-01T09:39:37.429Z,13.68
2023-04-01T09:42:05.070Z,13.50
2023-04-01T09:44:32.839Z,13.36
2023-04-01T09:47:00.498Z,13.25
2023-04-01T09:49:28.262Z,13.16
2023-04-01T09:51:56.537Z,13.11
2023-04-01T09:54:24.198Z,13.74
2023-04-01T09:56:51.986Z,15.98
2023-04-01T09:59:19.635Z,15.98
2023-04-01T10:01:47.524Z,15.37
2023-04-01T10:04:15.456Z,14.85
2023-04-01T10:06:43.221Z,14.48
2023-04-01T10:09:10.985Z,14.23
2023-04-01T10:11:38.650Z,14.05
2023-04-01T10:14:06.519Z,13.91
2023-04-01T10:16:34.241Z,13.79
2023-04-01T10:19:02.044Z,13.67
2023-04-01T10:21:29.804Z,13.59
2023-04-01T10:23:57.478Z,13.51
2023-04-01T10:26:25.333Z,13.47
2023-04-01T10:28:53.094Z,13.44
2023-04-01T10:31:20.788Z,13.42
2023-04-01T10:33:48.520Z,13.40
2023-04-01T10:36:16.415Z,13.37
2023-04-01T10:38:44.157Z,13.33
2023-04-01T10:41:11.811Z,13.31
2023-04-01T10:43:39.574Z,13.30
2023-04-01T10:46:07.296Z,13.28
2023-04-01T10:48:35.000Z,13.25
2023-04-01T10:51:03.014Z,13.23
2023-04-01T10:53:31.467Z,13.17
2023-04-01T10:55:59.218Z,13.10
2023-04-01T10:58:26.976Z,13.06
2023-04-01T11:00:54.879Z,13.12
2023-04-01T11:03:22.868Z,15.10
2023-04-01T11:05:50.787Z,17.29
2023-04-01T11:08:18.448Z,16.83
2023-04-01T11:10:46.211Z,15.91
2023-04-01T11:13:13.877Z,15.23
2023-04-01T11:15:41.663Z,14.84
2023-04-01T11:18:09.477Z,14.54
2023-04-01T11:20:37.265Z,14.27
2023-04-01T11:23:04.929Z,13.99
2023-04-01T11:25:32.824Z,13.74
2023-04-01T11:28:00.775Z,14.16
2023-04-01T11:30:28.801Z,16.68
2023-04-01T11:32:58.190Z,18.09
2023-04-01T11:35:27.126Z,17.21
2023-04-01T11:37:54.906Z,16.13
2023-04-01T11:40:25.938Z,15.36
2023-04-01T11:42:53.700Z,14.86
2023-04-01T11:45:22.180Z,14.54
2023-04-01T11:47:50.068Z,14.29
2023-04-01T11:50:17.811Z,14.10
2023-04-01T11:52:45.754Z,15.51
2023-04-01T11:55:13.829Z,18.03
2023-04-01T11:57:41.848Z,18.24
2023-04-01T12:00:09.889Z,17.06
2023-04-01T12:02:37.829Z,16.15
2023-04-01T12:05:06.133Z,15.47
2023-04-01T12:07:33.849Z,15.01
2023-04-01T12:10:03.511Z,14.65
2023-04-01T12:12:31.440Z,14.33
2023-04-01T12:14:59.628Z,14.09
2023-04-01T12:17:29.117Z,14.63
2023-04-01T12:19:56.922Z,17.25
2023-04-01T12:22:33.652Z,18.25
2023-04-01T12:25:02.085Z,17.17
2023-04-01T12:27:31.968Z,16.29
2023-04-01T12:29:59.861Z,15.73
2023-04-01T12:32:27.644Z,15.33
2023-04-01T12:34:59.575Z,15.02
2023-04-01T12:37:33.301Z,14.77
2023-04-01T12:40:01.455Z,14.61
2023-04-01T12:42:29.135Z,15.43
2023-04-01T12:44:57.254Z,17.98
2023-04-01T12:47:29.118Z,18.24
2023-04-01T12:49:56.914Z,17.35
2023-04-01T12:52:24.577Z,16.58
2023-04-01T12:54:52.243Z,16.02
2023-04-01T12:57:20.006Z,15.64
2023-04-01T12:59:52.485Z,15.41
2023-04-01T13:02:20.622Z,15.26
2023-04-01T13:04:53.881Z,15.16
2023-04-01T13:10:21.133Z,15.08
2023-04-01T13:12:49.041Z,15.02
2023-04-01T13:15:17.155Z,14.94
2023-04-01T13:17:45.002Z,14.84
2023-04-01T13:20:13.205Z,14.78
2023-04-01T13:22:41.163Z,14.73
2023-04-01T13:25:08.928Z,14.71
2023-04-01T13:27:36.691Z,14.75
2023-04-01T13:30:04.474Z,14.83
2023-04-01T13:32:43.229Z,14.94
2023-04-01T13:35:11.760Z,15.05
2023-04-01T13:37:39.426Z,15.10
2023-04-01T13:40:07.290Z,15.10
2023-04-01T13:42:34.951Z,15.05
2023-04-01T13:45:03.845Z,14.95
2023-04-01T13:47:31.635Z,14.80
2023-04-01T13:49:59.689Z,14.65
2023-04-01T13:52:27.862Z,14.50
2023-04-01T13:54:55.511Z,14.35
2023-04-01T13:57:23.458Z,14.23
2023-04-01T13:59:51.344Z,14.13
2023-04-01T14:02:19.017Z,14.05
2023-04-01T14:04:46.875Z,13.98
2023-04-01T14:07:14.635Z,13.93
2023-04-01T14:09:42.300Z,13.88
2023-04-01T14:12:09.959Z,14.52
2023-04-01T14:14:37.726Z,17.30
2023-04-01T14:17:05.490Z,18.73
2023-04-01T14:19:33.153Z,17.79
2023-04-01T14:22:01.122Z,16.89
2023-04-01T14:24:28.791Z,16.25
2023-04-01T14:26:57.785Z,15.72
2023-04-01T14:29:25.550Z,15.31
2023-04-01T14:31:53.340Z,14.99
2023-04-01T14:34:21.269Z,14.76
2023-04-01T14:36:49.034Z,14.63
2023-04-01T14:39:17.532Z,14.53
2023-04-01T14:41:45.590Z,14.43
2023-04-01T14:44:16.758Z,14.32
2023-04-01T14:46:44.597Z,14.19
2023-04-01T14:49:12.365Z,14.06
2023-04-01T14:51:40.145Z,13.90
2023-04-01T14:57:12.368Z,16.00
2023-04-01T14:59:47.455Z,17.78
2023-04-01T15:02:15.112Z,16.99
2023-04-01T15:04:43.108Z,15.94
2023-04-01T15:07:10.845Z,15.08
2023-04-01T15:09:40.078Z,14.48
2023-04-01T15:12:07.808Z,15.09
2023-04-01T15:14:39.511Z,17.47
2023-04-01T15:17:09.275Z,18.40
2023-04-01T15:19:36.940Z,17.25
2023-04-01T15:22:04.633Z,16.15
2023-04-01T15:24:32.364Z,15.34
2023-04-01T15:26:59.999Z,14.73
2023-04-01T15:29:27.689Z,14.83
2023-04-01T15:31:59.274Z,17.20
2023-04-01T15:34:27.130Z,18.23
2023-04-01T15:36:54.876Z,17.14
2023-04-01T15:39:22.536Z,16.09
2023-04-01T15:41:50.200Z,15.30
2023-04-01T15:44:17.858Z,14.73
2023-04-01T15:46:45.720Z,14.23
2023-04-01T15:49:13.592Z,14.00
2023-04-01T15:51:41.264Z,15.80
2023-04-01T15:54:10.756Z,17.43
2023-04-01T15:56:40.974Z,16.66
2023-04-01T15:59:17.318Z,15.54
2023-04-01T16:01:47.976Z,14.57
2023-04-01T16:04:16.046Z,13.95
2023-04-01T16:06:49.045Z,14.07
2023-04-01T16:09:16.901Z,16.44
2023-04-01T16:11:44.556Z,17.00
2023-04-01T16:14:12.218Z,15.74
2023-04-01T16:16:39.943Z,14.72
2023-04-01T16:19:07.746Z,13.93
2023-04-01T16:21:36.943Z,13.45
2023-04-01T16:24:05.835Z,14.85
2023-04-01T16:26:33.642Z,16.52
2023-04-01T16:29:01.366Z,15.76
2023-04-01T16:31:29.026Z,14.67
2023-04-01T16:33:56.705Z,13.86
2023-04-01T16:36:24.551Z,14.00
2023-04-01T16:38:52.212Z,16.24
2023-04-01T16:41:19.889Z,17.44
2023-04-01T16:43:49.071Z,16.48
2023-04-01T16:46:16.925Z,15.26
2023-04-01T16:48:44.707Z,14.34
2023-04-01T16:51:12.773Z,13.84
2023-04-01T16:53:40.434Z,15.70
2023-04-01T16:56:08.055Z,16.98
2023-04-01T16:58:35.860Z,16.15
2023-04-01T17:01:06.001Z,14.99
2023-04-01T17:03:33.661Z,14.10
2023-04-01T17:06:01.418Z,14.17
2023-04-01T17:08:29.174Z,16.30
2023-04-01T17:10:59.290Z,16.59
2023-04-01T17:13:27.366Z,15.38
2023-04-01T17:15:55.110Z,14.38
2023-04-01T17:18:23.006Z,14.26
2023-04-01T17:20:50.867Z,16.15
2023-04-01T17:23:18.530Z,16.60
2023-04-01T17:25:46.394Z,15.49
2023-04-01T17:28:14.158Z,14.45
2023-04-01T17:30:41.819Z,13.67
2023-04-01T17:33:09.514Z,14.46
2023-04-01T17:35:37.371Z,16.75
2023-04-01T17:38:06.239Z,17.64
2023-04-01T17:40:34.098Z,16.23
2023-04-01T17:43:01.970Z,14.89
2023-04-01T17:45:29.631Z,14.01
2023-04-01T17:47:57.417Z,13.84
2023-04-01T17:50:25.160Z,16.02
2023-04-01T17:52:52.817Z,17.35
2023-04-01T17:55:20.592Z,16.26
2023-04-01T17:57:48.450Z,15.01
2023-04-01T18:00:16.421Z,14.02
2023-04-01T18:02:45.682Z,13.96
2023-04-01T18:05:13.587Z,16.13
2023-04-01T18:07:41.249Z,16.93
2023-04-01T18:10:08.919Z,15.78
2023-04-01T18:12:36.574Z,14.70
2023-04-01T18:15:04.337Z,13.88
2023-04-01T18:17:33.912Z,14.14
2023-04-01T18:20:01.749Z,16.44
2023-04-01T18:22:29.781Z,16.82
2023-04-01T18:24:57.955Z,15.53
2023-04-01T18:27:25.727Z,14.40
2023-04-01T18:29:53.493Z,13.61
2023-04-01T18:32:24.649Z,13.85
2023-04-01T18:34:54.257Z,16.24
2023-04-01T18:37:21.891Z,17.47
2023-04-01T18:39:49.562Z,16.39
2023-04-01T18:42:17.326Z,15.17
2023-04-01T18:44:47.952Z,14.19
2023-04-01T18:47:16.202Z,14.07
2023-04-01T18:49:44.676Z,16.29
2023-04-01T18:52:16.005Z,17.48
2023-04-01T18:54:45.148Z,16.26
2023-04-01T18:57:13.097Z,15.01
2023-04-01T18:59:41.423Z,14.10
2023-04-01T19:02:09.167Z,14.09
2023-04-01T19:04:36.920Z,16.29
2023-04-01T19:07:04.820Z,17.33
2023-04-01T19:09:32.579Z,16.33
2023-04-01T19:12:00.248Z,15.05
2023-04-01T19:14:27.985Z,14.10
2023-04-01T19:16:55.739Z,14.17
2023-04-01T19:19:23.508Z,16.47
2023-04-01T19:21:52.086Z,17.66
2023-04-01T19:24:19.755Z,16.46
2023-04-01T19:26:47.509Z,15.19
2023-04-01T19:29:15.276Z,14.19
2023-04-01T19:31:42.985Z,13.51
2023-04-01T19:34:10.806Z,14.08
2023-04-01T19:36:38.469Z,16.56
2023-04-01T19:39:06.234Z,17.62
2023-04-01T19:41:36.211Z,16.47
2023-04-01T19:44:03.919Z,15.14
2023-04-01T19:46:33.009Z,14.17
2023-04-01T19:49:01.183Z,13.84
2023-04-01T19:51:28.846Z,15.81
2023-04-01T19:53:56.708Z,17.26
2023-04-01T19:56:24.374Z,16.40
2023-04-01T19:58:52.075Z,15.15
2023-04-01T20:01:19.796Z,14.19
2023-04-01T20:03:47.742Z,13.51
2023-04-01T20:06:15.836Z,14.26
2023-04-01T20:08:43.603Z,16.71
2023-04-01T20:11:11.366Z,17.48
2023-04-01T20:13:39.232Z,16.27
2023-04-01T20:16:07.252Z,15.07
2023-04-01T20:18:35.585Z,14.18
2023-04-01T20:21:03.344Z,13.58
2023-04-01T20:23:31.216Z,14.85
2023-04-01T20:25:58.870Z,17.17
2023-04-01T20:28:26.639Z,17.24
2023-04-01T20:30:54.409Z,15.93
2023-04-01T20:33:22.165Z,14.84
2023-04-01T20:35:49.842Z,14.05
2023-04-01T20:38:17.692Z,13.48
2023-04-01T20:40:45.658Z,14.60
2023-04-01T20:43:13.423Z,17.00
2023-04-01T20:45:42.368Z,17.23
2023-04-01T20:48:10.202Z,15.86
2023-04-01T20:50:38.052Z,14.71
2023-04-01T20:53:05.814Z,13.88
2023-04-01T20:55:33.740Z,13.35
2023-04-01T20:58:01.649Z,14.83
2023-04-01T21:00:30.130Z,17.15
2023-04-01T21:02:58.093Z,17.50
2023-04-01T21:05:26.075Z,16.07
2023-04-01T21:07:53.739Z,14.82
2023-04-01T21:10:21.879Z,13.93
2023-04-01T21:12:49.567Z,13.30
2023-04-01T21:15:17.227Z,14.04
2023-04-01T21:17:45.015Z,16.43
2023-04-01T21:20:12.857Z,17.49
2023-04-01T21:22:40.520Z,16.37
2023-04-01T21:25:08.128Z,15.10
2023-04-01T21:27:35.851Z,14.19
2023-04-01T21:30:03.502Z,13.50
2023-04-01T21:32:32.012Z,13.67
2023-04-01T21:34:59.750Z,16.16
2023-04-01T21:37:27.515Z,17.52
2023-04-01T21:39:55.582Z,16.46
2023-04-01T21:42:23.246Z,15.18
2023-04-01T21:44:51.121Z,14.26
2023-04-01T21:47:18.779Z,14.17
2023-04-01T21:49:46.540Z,16.38
2023-04-01T21:52:14.160Z,17.64
2023-04-01T21:54:41.962Z,16.55
2023-04-01T21:57:09.681Z,15.30
2023-04-01T21:59:37.489Z,14.40
2023-04-01T22:02:05.355Z,13.74
2023-04-01T22:04:33.234Z,13.97
2023-04-01T22:07:01.102Z,16.42
2023-04-01T22:09:28.755Z,17.68
2023-04-01T22:11:56.429Z,16.65
2023-04-01T22:14:24.992Z,15.41
2023-04-01T22:16:53.073Z,14.49
2023-04-01T22:19:21.349Z,13.84
2023-04-01T22:21:53.350Z,14.21
2023-04-01T22:24:21.381Z,16.74
2023-04-01T22:26:49.036Z,17.80
2023-04-01T22:29:16.902Z,16.62
2023-04-01T22:31:44.574Z,15.37
2023-04-01T22:34:12.225Z,14.47
2023-04-01T22:36:40.194Z,13.81
2023-04-01T22:39:08.270Z,14.04
2023-04-01T22:41:36.204Z,16.48
2023-04-01T22:44:03.898Z,17.69
2023-04-01T22:46:31.635Z,16.60
2023-04-01T22:48:59.738Z,15.38
2023-04-01T22:51:27.394Z,14.50
2023-04-01T22:53:56.181Z,13.88
2023-04-01T22:56:23.843Z,14.19
2023-04-01T22:58:51.727Z,16.67
2023-04-01T23:01:19.485Z,17.70
2023-04-01T23:03:47.239Z,16.52
2023-04-01T23:06:14.900Z,15.31
2023-04-01T23:08:42.594Z,14.43
2023-04-01T23:11:10.543Z,13.79
2023-04-01T23:13:39.113Z,14.05
2023-04-01T23:16:06.834Z,16.54
2023-04-01T23:18:34.647Z,17.73
2023-04-01T23:21:02.410Z,16.65
2023-04-01T23:23:30.832Z,15.46
2023-04-01T23:25:58.553Z,14.60
2023-04-01T23:28:26.322Z,13.96
2023-04-01T23:30:54.131Z,14.15
2023-04-01T23:33:21.947Z,16.59
2023-04-01T23:35:49.860Z,17.67
2023-04-01T23:38:17.580Z,16.52
2023-04-01T23:40:45.852Z,15.31
2023-04-01T23:43:13.515Z,14.45
2023-04-01T23:45:41.173Z,13.80
2023-04-01T23:48:08.895Z,13.92
2023-04-01T23:50:36.706Z,16.34
2023-04-01T23:53:04.377Z,17.64
2023-04-01T23:55:32.192Z,16.54
2023-04-01T23:58:00.109Z,15.31
